createdAt,value
2022-10-11T00:02:07.807Z,23.4
2022-10-11T00:07:26.575Z,23.5
2022-10-11T00:12:45.381Z,23.5
2022-10-11T00:18:05.726Z,23.5
2022-10-11T00:23:23.932Z,23.5
2022-10-11T00:28:42.052Z,23.5
2022-10-11T00:34:00.973Z,23.5
2022-10-11T00:39:19.738Z,23.6
2022-10-11T00:44:38.520Z,23.6
2022-10-11T00:49:57.551Z,23.6
2022-10-11T00:55:16.025Z,23.6
2022-10-11T01:00:34.533Z,23.6
2022-10-11T01:05:53.001Z,23.6
2022-10-11T01:11:11.503Z,23.6
2022-10-11T01:16:30.281Z,23.6
2022-10-11T01:21:48.471Z,23.6
2022-10-11T01:27:06.949Z,23.6
2022-10-11T01:32:25.459Z,23.6
2022-10-11T01:37:43.918Z,23.6
2022-10-11T01:43:02.695Z,23.6
2022-10-11T01:48:21.212Z,23.6
2022-10-11T01:53:39.391Z,23.6
2022-10-11T01:58:57.611Z,23.6
2022-10-11T02:04:16.412Z,23.6
2022-10-11T02:09:35.133Z,23.6
2022-10-11T02:14:53.627Z,23.6
2022-10-11T02:20:12.462Z,23.6
2022-10-11T02:25:30.906Z,23.6
2022-10-11T02:30:49.405Z,23.6
2022-10-11T02:36:08.785Z,23.6
2022-10-11T02:41:27.590Z,23.6
2022-10-11T02:46:46.090Z,23.6
2022-10-11T02:52:04.607Z,23.6
2022-10-11T02:57:23.073Z,23.6
2022-10-11T03:02:41.841Z,23.6
2022-10-11T03:08:00.649Z,23.6
2022-10-11T03:13:19.110Z,23.6
2022-10-11T03:18:37.868Z,23.6
2022-10-11T03:23:56.123Z,23.6
2022-10-11T03:29:14.015Z,23.7
2022-10-11T03:34:32.515Z,23.7
2022-10-11T03:39:51.106Z,23.7
2022-10-11T03:45:09.854Z,23.7
2022-10-11T03:50:28.349Z,23.7
2022-10-11T03:55:46.885Z,23.7
2022-10-11T04:01:05.063Z,23.7
2022-10-11T04:06:23.868Z,23.6
2022-10-11T04:11:42.376Z,23.7
2022-10-11T04:17:01.007Z,23.7
2022-10-11T04:22:19.216Z,23.7
2022-10-11T04:27:37.825Z,23.6
2022-10-11T04:32:56.256Z,23.3
2022-10-11T04:38:14.734Z,23
2022-10-11T04:43:32.985Z,22.9
2022-10-11T04:48:51.439Z,22.7
2022-10-11T04:54:09.933Z,22.6
2022-10-11T04:59:28.722Z,22.5
2022-10-11T05:04:47.455Z,22.4
2022-10-11T05:10:05.675Z,22.5
2022-10-11T05:15:23.892Z,22.7
2022-10-11T05:20:42.076Z,22.7
2022-10-11T05:25:44.662Z,22.8
2022-10-11T05:31:03.507Z,22.8
2022-10-11T05:36:21.761Z,22.9
2022-10-11T05:41:40.532Z,22.9
2022-10-11T05:46:59.063Z,22.9
2022-10-11T05:52:17.243Z,23
2022-10-11T05:57:35.747Z,23
2022-10-11T06:02:54.309Z,23
2022-10-11T06:08:12.797Z,23.1
2022-10-11T06:13:30.719Z,23.1
2022-10-11T06:18:49.229Z,23.1
2022-10-11T06:24:07.693Z,23.1
2022-10-11T06:29:26.462Z,23.1
2022-10-11T06:34:45.243Z,23.1
2022-10-11T06:39:49.355Z,23.1
2022-10-11T06:45:08.134Z,23.1
2022-10-11T06:50:59.793Z,23.2
2022-10-11T06:56:24.394Z,23.2
2022-10-11T07:01:42.883Z,23.2
2022-10-11T07:07:01.423Z,23.2
2022-10-11T07:12:19.301Z,23.2
2022-10-11T07:17:38.461Z,23.2
2022-10-11T07:22:56.695Z,23.2
2022-10-11T07:27:59.398Z,23.2
2022-10-11T07:33:18.013Z,23.2
2022-10-11T07:38:36.562Z,23.2
2022-10-11T07:43:55.330Z,23.2
2022-10-11T07:49:13.820Z,23.2
2022-10-11T07:54:32.041Z,23.3
2022-10-11T07:59:50.959Z,23.3
2022-10-11T08:05:09.702Z,23.3
2022-10-11T08:10:27.935Z,23.3
2022-10-11T08:15:46.112Z,23.3
2022-10-11T08:21:04.719Z,23.3
2022-10-11T08:26:23.190Z,23.3
2022-10-11T08:31:41.937Z,23.3
2022-10-11T08:37:00.143Z,23.3
2022-10-11T08:42:18.674Z,23.3
2022-10-11T08:47:37.404Z,23.3
2022-10-11T08:52:56.181Z,23.3
2022-10-11T08:58:14.675Z,23.3
2022-10-11T09:03:32.584Z,23.3
2022-10-11T09:08:50.800Z,23.3
2022-10-11T09:14:09.026Z,23.3
2022-10-11T09:19:27.210Z,23.3
2022-10-11T09:24:45.705Z,23.3
2022-10-11T09:30:04.493Z,23.3
2022-10-11T09:35:22.659Z,23.4
2022-10-11T09:40:41.160Z,23.4
2022-10-11T09:45:59.956Z,23.4
2022-10-11T09:51:18.691Z,23.4
2022-10-11T09:56:36.911Z,23.4
2022-10-11T10:01:55.420Z,23.4
2022-10-11T10:07:15.395Z,23.4
2022-10-11T10:12:33.886Z,23.4
2022-10-11T10:17:52.104Z,23.4
2022-10-11T10:23:10.844Z,23.4
2022-10-11T10:28:28.975Z,23.4
2022-10-11T10:33:47.939Z,23.4
2022-10-11T10:39:05.837Z,23.4
2022-10-11T10:44:24.057Z,23.5
2022-10-11T10:49:55.269Z,23.5
2022-10-11T10:55:13.883Z,23.5
2022-10-11T11:00:32.645Z,23.5
2022-10-11T11:05:51.181Z,23.5
2022-10-11T11:11:09.360Z,23.5
2022-10-11T11:16:27.558Z,23.5
2022-10-11T11:21:46.062Z,23.6
2022-10-11T11:27:04.180Z,23.6
2022-10-11T11:32:22.669Z,23.6
2022-10-11T11:37:40.961Z,23.6
2022-10-11T11:42:59.687Z,23.6
2022-10-11T11:48:17.898Z,23.6
2022-10-11T11:53:36.143Z,23.6
2022-10-11T11:58:54.603Z,23.6
2022-10-11T12:04:13.386Z,23.6
2022-10-11T12:09:31.885Z,23.6
2022-10-11T12:14:50.340Z,23.6
2022-10-11T12:20:08.557Z,23.6
2022-10-11T12:25:27.059Z,23.6
2022-10-11T12:30:45.518Z,23.6
2022-10-11T12:36:08.771Z,23.6
2022-10-11T12:41:26.802Z,23.6
2022-10-11T12:46:45.225Z,23.6
2022-10-11T12:52:03.977Z,23.6
2022-10-11T12:57:22.777Z,23.6
2022-10-11T13:02:41.268Z,23.5
2022-10-11T13:07:59.742Z,23.5
2022-10-11T13:13:18.259Z,23.5
2022-10-11T13:18:36.723Z,23.5
2022-10-11T13:23:55.489Z,23.5
2022-10-11T13:29:13.723Z,23.6
2022-10-11T13:34:35.570Z,23.5
2022-10-11T13:39:54.406Z,23.5
2022-10-11T13:45:12.905Z,23.5
2022-10-11T13:50:31.082Z,23.5
2022-10-11T13:55:49.576Z,23.5
2022-10-11T14:01:07.942Z,23.5
2022-10-11T14:06:26.511Z,23.5
2022-10-11T14:11:45.276Z,23.5
2022-10-11T14:17:03.534Z,23.5
2022-10-11T14:22:21.413Z,23.5
2022-10-11T14:27:39.618Z,23.5
2022-10-11T14:32:58.193Z,23.5
2022-10-11T14:38:16.454Z,23.5
2022-10-11T14:43:34.949Z,23.5
2022-10-11T14:48:56.890Z,23.5
2022-10-11T14:54:15.525Z,23.5
2022-10-11T14:59:33.730Z,23.5
2022-10-11T15:04:52.245Z,23.5
2022-10-11T15:10:10.707Z,23.5
2022-10-11T15:15:29.463Z,23.5
2022-10-11T15:20:48.062Z,23.4
2022-10-11T15:26:06.895Z,23.4
2022-10-11T15:31:26.667Z,23.4
2022-10-11T15:36:44.883Z,23.4
2022-10-11T15:42:03.630Z,23.4
2022-10-11T15:47:22.109Z,23.4
2022-10-11T15:52:40.634Z,23.5
2022-10-11T15:57:59.096Z,23.5
2022-10-11T16:03:17.288Z,23.5
2022-10-11T16:08:35.523Z,23.5
2022-10-11T16:13:53.979Z,23.5
2022-10-11T16:19:12.755Z,23.5
2022-10-11T16:24:31.254Z,23.5
2022-10-11T16:29:49.975Z,23.5
2022-10-11T16:35:08.750Z,23.5
2022-10-11T16:40:27.257Z,23.5
2022-10-11T16:45:45.982Z,23.4
2022-10-11T16:51:04.466Z,23.5
2022-10-11T16:56:23.083Z,23.4
2022-10-11T17:01:41.527Z,23.4
2022-10-11T17:06:59.734Z,23.5
2022-10-11T17:12:18.249Z,23.5
2022-10-11T17:17:36.707Z,23.5
2022-10-11T17:22:55.223Z,23.5
2022-10-11T17:28:13.820Z,23.5
2022-10-11T17:33:32.139Z,23.5
2022-10-11T17:38:50.881Z,23.5
2022-10-11T17:44:09.412Z,23.5
2022-10-11T17:49:27.875Z,23.5
2022-10-11T17:54:46.645Z,23.5
2022-10-11T18:00:06.381Z,23.5
2022-10-11T18:05:24.987Z,23.5
2022-10-11T18:10:47.882Z,23.5
2022-10-11T18:16:06.688Z,23.5
2022-10-11T18:21:34.172Z,23.5
2022-10-11T18:26:52.911Z,23.5
2022-10-11T18:32:11.433Z,23.5
2022-10-11T18:37:30.165Z,23.5
2022-10-11T18:42:48.936Z,23.5
2022-10-11T18:48:07.160Z,23.5
2022-10-11T18:53:25.616Z,23.5
2022-10-11T18:58:44.368Z,23.5
2022-10-11T19:04:02.863Z,23.5
2022-10-11T19:09:21.418Z,23.4
2022-10-11T19:14:40.209Z,23.5
2022-10-11T19:19:58.445Z,23.5
2022-10-11T19:25:16.911Z,23.5
2022-10-11T19:30:34.831Z,23.5
2022-10-11T19:35:53.636Z,23.5
2022-10-11T19:41:12.101Z,23.4
2022-10-11T19:46:52.268Z,23.5
2022-10-11T19:52:11.492Z,23.5
2022-10-11T19:57:13.779Z,23.5
2022-10-11T20:02:32.987Z,23.5
2022-10-11T20:07:52.015Z,23.5
2022-10-11T20:13:10.768Z,23.5
2022-10-11T20:18:28.710Z,23.5
2022-10-11T20:23:47.234Z,23.5
2022-10-11T20:29:05.404Z,23.5
2022-10-11T20:34:23.895Z,23.6
2022-10-11T20:39:42.796Z,23.6
2022-10-11T20:45:00.763Z,23.6
2022-10-11T20:50:23.344Z,23.6
2022-10-11T20:55:41.888Z,23.6
2022-10-11T21:01:00.323Z,23.6
2022-10-11T21:06:18.788Z,23.6
2022-10-11T21:11:37.296Z,23.6
2022-10-11T21:16:55.757Z,23.6
2022-10-11T21:22:14.213Z,23.5
2022-10-11T21:27:33.400Z,23.5
2022-10-11T21:32:52.096Z,23.5
2022-10-11T21:38:10.862Z,23.5
2022-10-11T21:43:29.390Z,23.5
2022-10-11T21:48:47.569Z,23.5
2022-10-11T21:54:06.047Z,23.6
2022-10-11T21:59:24.292Z,23.6
2022-10-11T22:04:42.474Z,23.5
2022-10-11T22:10:00.967Z,23.5
2022-10-11T22:15:19.209Z,23.5
2022-10-11T22:20:37.099Z,23.5
2022-10-11T22:25:55.597Z,23.6
2022-10-11T22:31:14.124Z,23.5
2022-10-11T22:36:32.592Z,23.5
2022-10-11T22:41:51.089Z,23.5
2022-10-11T22:47:09.334Z,23.5
2022-10-11T22:52:27.503Z,23.5
2022-10-11T22:57:45.434Z,23.5
2022-10-11T23:03:03.958Z,23.5
2022-10-11T23:08:22.419Z,23.5
2022-10-11T23:13:40.635Z,23.5
2022-10-11T23:18:59.155Z,23.5
2022-10-11T23:24:17.618Z,23.5
2022-10-11T23:29:36.100Z,23.5
2022-10-11T23:34:54.661Z,23.5
2022-10-11T23:40:13.415Z,23.5
2022-10-11T23:45:31.876Z,23.5
2022-10-11T23:50:50.664Z,23.5
2022-10-11T23:56:08.850Z,23.5
